Time;durP1;ratioP1;P1;durP2;ratioP2;P2;SDS_P1;SDS_P2;PMS_P1;PMS_P2;Temp;Humidity;BMP_temperature;BMP_pressure;BME280_temperature;BME280_humidity;BME280_pressure;Samples;Min_cycle;Max_cycle;Signal;HPM_P1;HPM_P2
2022/06/21 00:01:01;;;;;;;0.00;0.00;;;12.40;99.90;;;;;;5020519;28;20437;-72
2022/06/21 00:03:30;;;;;;;0.00;0.00;;;12.40;99.90;;;;;;5020200;28;20560;-71
2022/06/21 00:05:59;;;;;;;0.00;0.00;;;12.50;99.90;;;;;;5019947;28;20979;-71
2022/06/21 00:08:29;;;;;;;0.00;0.00;;;12.50;99.90;;;;;;5020301;28;20954;-72
2022/06/21 00:10:59;;;;;;;0.00;0.00;;;12.50;99.90;;;;;;5020350;28;20870;-72
2022/06/21 00:13:30;;;;;;;0.00;0.00;;;12.40;99.90;;;;;;5019982;28;20442;-73
2022/06/21 00:15:59;;;;;;;0.00;0.00;;;12.40;99.90;;;;;;5020135;28;20453;-70
2022/06/21 00:18:29;;;;;;;0.00;0.00;;;12.40;99.90;;;;;;5019885;28;20445;-68
2022/06/21 00:20:58;;;;;;;0.00;0.00;;;12.40;99.90;;;;;;5019573;28;20537;-71
2022/06/21 00:23:29;;;;;;;0.00;0.00;;;12.30;99.90;;;;;;5019762;28;20491;-71
2022/06/21 00:25:59;;;;;;;0.00;0.00;;;12.40;99.90;;;;;;5019642;28;20468;-71
2022/06/21 00:28:27;;;;;;;0.00;0.00;;;12.30;99.90;;;;;;5020020;28;20476;-72
2022/06/21 00:30:56;;;;;;;0.00;0.00;;;12.30;99.90;;;;;;5019283;28;20810;-72
2022/06/21 00:33:25;;;;;;;0.00;0.00;;;12.30;99.90;;;;;;5018853;28;20817;-71
2022/06/21 00:35:55;;;;;;;0.00;0.00;;;12.30;99.90;;;;;;5019369;28;20552;-71
2022/06/21 00:38:27;;;;;;;0.00;0.00;;;12.30;99.90;;;;;;5019563;28;20846;-72
2022/06/21 00:40:58;;;;;;;0.00;0.00;;;12.30;99.90;;;;;;5019329;28;20925;-72
2022/06/21 00:43:29;;;;;;;0.00;0.00;;;12.30;99.90;;;;;;5018937;28;20556;-71
2022/06/21 00:45:59;;;;;;;0.00;0.00;;;12.30;99.90;;;;;;5019184;28;20471;-71
2022/06/21 00:48:31;;;;;;;0.00;0.00;;;12.30;99.90;;;;;;5019380;28;20500;-72
2022/06/21 00:51:17;;;;;;;0.00;0.00;;;12.20;99.90;;;;;;5019064;28;20947;-72
2022/06/21 00:53:50;;;;;;;0.00;0.00;;;12.20;99.90;;;;;;5018234;28;20951;-72
2022/06/21 00:56:25;;;;;;;0.00;0.00;;;12.20;99.90;;;;;;5018401;28;20500;-70
2022/06/21 00:58:53;;;;;;;0.00;0.00;;;12.10;99.90;;;;;;5018747;28;20773;-71
2022/06/21 01:01:24;;;;;;;0.00;0.00;;;12.10;99.90;;;;;;5018820;28;20556;-71
2022/06/21 01:03:57;;;;;;;0.00;0.00;;;12.10;99.90;;;;;;5020066;28;20476;-71
2022/06/21 01:06:28;;;;;;;0.00;0.00;;;12.10;99.90;;;;;;5018948;28;20548;-71
2022/06/21 01:09:00;;;;;;;0.00;0.00;;;12.10;99.90;;;;;;5018996;28;20449;-71
2022/06/21 01:11:34;;;;;;;0.00;0.00;;;12.10;99.90;;;;;;5018664;28;20481;-71
2022/06/21 01:14:02;;;;;;;0.00;0.00;;;12.10;99.90;;;;;;5018957;28;20479;-72
2022/06/21 01:16:33;;;;;;;0.00;0.00;;;12.10;99.90;;;;;;5018949;28;20468;-71
2022/06/21 01:19:02;;;;;;;0.00;0.00;;;12.10;99.90;;;;;;5021913;28;20674;-72
2022/06/21 01:21:31;;;;;;;0.00;0.00;;;12.10;99.90;;;;;;5019354;28;20506;-71
2022/06/21 01:24:09;;;;;;;0.00;0.00;;;12.10;99.90;;;;;;5019501;28;20491;-71
2022/06/21 01:26:46;;;;;;;0.00;0.00;;;12.00;99.90;;;;;;5019465;28;21001;-71
2022/06/21 01:29:26;;;;;;;0.00;0.00;;;12.00;99.90;;;;;;5019751;28;21019;-70
2022/06/21 01:31:56;;;;;;;0.00;0.00;;;12.00;99.90;;;;;;5019547;28;20934;-69
2022/06/21 01:34:27;;;;;;;0.00;0.00;;;12.00;99.90;;;;;;5020343;28;20445;-72
2022/06/21 01:36:59;;;;;;;0.00;0.00;;;12.00;99.90;;;;;;5019874;28;20511;-72
2022/06/21 01:39:30;;;;;;;0.00;0.00;;;12.00;99.90;;;;;;5019335;28;20441;-71
2022/06/21 01:42:04;;;;;;;0.00;0.00;;;11.90;99.90;;;;;;5019466;28;20429;-71
2022/06/21 01:44:38;;;;;;;0.00;0.00;;;11.90;99.90;;;;;;5018805;28;20485;-71
2022/06/21 01:47:09;;;;;;;0.00;0.00;;;11.90;99.90;;;;;;5022001;28;20583;-69
2022/06/21 01:49:42;;;;;;;0.00;0.00;;;11.90;99.90;;;;;;5022982;28;20444;-69
2022/06/21 01:52:14;;;;;;;0.00;0.00;;;11.90;99.90;;;;;;5023311;28;20433;-72
2022/06/21 01:54:47;;;;;;;0.00;0.00;;;12.00;99.90;;;;;;5023298;28;20463;-70
2022/06/21 01:57:16;;;;;;;0.00;0.00;;;11.90;99.90;;;;;;5023095;28;20460;-72
2022/06/21 01:59:48;;;;;;;0.00;0.00;;;12.00;99.90;;;;;;5023587;28;20978;-70
2022/06/21 02:02:20;;;;;;;0.00;0.00;;;12.00;99.90;;;;;;5024276;28;20815;-70
2022/06/21 02:04:55;;;;;;;0.00;0.00;;;12.00;99.90;;;;;;5022711;28;21087;-71
2022/06/21 02:07:26;;;;;;;0.00;0.00;;;12.10;99.90;;;;;;5022698;28;20471;-70
2022/06/21 02:10:01;;;;;;;0.00;0.00;;;12.00;99.90;;;;;;5022493;28;20924;-70
2022/06/21 02:12:32;;;;;;;0.00;0.00;;;12.00;99.90;;;;;;5022468;28;20443;-70
2022/06/21 02:15:03;;;;;;;0.00;0.00;;;12.00;99.90;;;;;;5022551;28;20805;-70
2022/06/21 02:17:35;;;;;;;0.00;0.00;;;12.00;99.90;;;;;;5022399;28;20457;-70
2022/06/21 02:22:38;;;;;;;0.00;0.00;;;11.90;99.90;;;;;;5382654;22;20492;-69
2022/06/21 02:25:09;;;;;;;0.00;0.00;;;11.90;99.90;;;;;;5004316;28;20684;-70
2022/06/21 02:27:39;;;;;;;0.00;0.00;;;11.90;99.90;;;;;;5001140;28;20541;-71
2022/06/21 02:30:16;;;;;;;0.00;0.00;;;11.90;99.90;;;;;;5001744;28;20773;-70
2022/06/21 02:32:44;;;;;;;0.00;0.00;;;11.90;99.90;;;;;;5001251;28;20448;-71
2022/06/21 02:35:21;;;;;;;0.00;0.00;;;11.90;99.90;;;;;;5001632;28;20470;-70
2022/06/21 02:37:52;;;;;;;0.00;0.00;;;11.90;99.90;;;;;;5002039;28;20462;-69
2022/06/21 02:40:24;;;;;;;0.00;0.00;;;11.90;99.90;;;;;;5002369;28;20604;-71
2022/06/21 02:42:58;;;;;;;0.00;0.00;;;11.90;99.90;;;;;;5001267;28;20441;-72
2022/06/21 02:45:32;;;;;;;0.00;0.00;;;11.90;99.90;;;;;;5001650;28;20569;-71
2022/06/21 02:48:05;;;;;;;0.00;0.00;;;11.90;99.90;;;;;;5001612;28;20444;-70
2022/06/21 02:50:39;;;;;;;0.00;0.00;;;11.90;99.90;;;;;;5001716;28;21020;-72
2022/06/21 02:53:15;;;;;;;0.00;0.00;;;11.80;99.90;;;;;;5001270;28;20438;-72
2022/06/21 02:55:48;;;;;;;0.00;0.00;;;11.80;99.90;;;;;;5000834;28;20438;-71
2022/06/21 02:58:26;;;;;;;0.00;0.00;;;11.70;99.90;;;;;;5001121;28;20450;-72
2022/06/21 03:00:54;;;;;;;0.00;0.00;;;11.70;99.90;;;;;;5001142;28;20429;-72
2022/06/21 03:03:26;;;;;;;0.00;0.00;;;11.70;99.90;;;;;;5000742;28;20450;-70
2022/06/21 03:05:58;;;;;;;0.00;0.00;;;11.80;99.90;;;;;;5000610;28;20576;-70
2022/06/21 03:08:30;;;;;;;0.00;0.00;;;11.70;99.90;;;;;;5000303;28;20438;-70
2022/06/21 03:10:59;;;;;;;0.00;0.00;;;11.70;99.90;;;;;;5000207;28;20446;-70
2022/06/21 03:13:30;;;;;;;0.00;0.00;;;11.80;99.90;;;;;;5000442;28;20438;-70
2022/06/21 03:16:02;;;;;;;0.00;0.00;;;11.80;99.90;;;;;;5000161;28;20545;-69
2022/06/21 03:18:36;;;;;;;0.00;0.00;;;11.80;99.90;;;;;;5000541;28;20442;-71
2022/06/21 03:21:04;;;;;;;0.00;0.00;;;11.80;99.90;;;;;;5000547;28;20439;-76
2022/06/21 03:23:34;;;;;;;0.00;0.00;;;11.80;99.90;;;;;;4986127;28;20466;-74
2022/06/21 03:26:04;;;;;;;0.00;0.00;;;11.90;99.90;;;;;;4980331;28;20803;-73
2022/06/21 03:28:36;;;;;;;0.00;0.00;;;11.90;99.90;;;;;;4979526;28;20783;-73
2022/06/21 03:31:08;;;;;;;0.00;0.00;;;11.80;99.90;;;;;;4980312;28;20486;-73
2022/06/21 03:33:40;;;;;;;0.00;0.00;;;11.80;99.90;;;;;;4979880;28;20756;-71
2022/06/21 03:36:12;;;;;;;0.00;0.00;;;11.80;99.90;;;;;;4979053;28;20451;-74
2022/06/21 03:38:44;;;;;;;0.00;0.00;;;11.80;99.90;;;;;;4980184;28;20754;-71
2022/06/21 03:44:06;;;;;;;0.00;0.00;;;11.90;99.90;;;;;;4980283;28;20449;-71
2022/06/21 03:46:42;;;;;;;0.00;0.00;;;11.90;99.90;;;;;;4980069;28;20483;-73
2022/06/21 03:49:18;;;;;;;0.00;0.00;;;11.90;99.90;;;;;;4979936;28;20589;-72
2022/06/21 03:51:48;;;;;;;0.00;0.00;;;11.90;99.90;;;;;;4980051;28;20446;-71
2022/06/21 03:54:21;;;;;;;0.00;0.00;;;11.90;99.90;;;;;;4979516;28;20443;-73
2022/06/21 03:56:54;;;;;;;0.00;0.00;;;11.90;99.90;;;;;;4979967;28;20469;-73
2022/06/21 03:59:29;;;;;;;0.00;0.00;;;12.00;99.90;;;;;;4980196;28;20461;-73
2022/06/21 04:02:03;;;;;;;0.00;0.00;;;11.90;99.90;;;;;;4979710;28;20474;-72
2022/06/21 04:04:36;;;;;;;0.00;0.00;;;12.00;99.90;;;;;;4979812;28;20720;-73
2022/06/21 04:07:14;;;;;;;0.00;0.00;;;12.00;99.90;;;;;;4979221;28;20479;-73
2022/06/21 04:09:47;;;;;;;0.00;0.00;;;12.00;99.90;;;;;;4979172;28;20502;-73
2022/06/21 04:12:23;;;;;;;0.00;0.00;;;12.10;99.90;;;;;;4979577;28;20519;-73
2022/06/21 04:14:57;;;;;;;0.00;0.00;;;12.10;99.90;;;;;;4981235;28;20559;-72
2022/06/21 04:17:29;;;;;;;0.00;0.00;;;12.10;99.90;;;;;;4979037;28;20459;-72
2022/06/21 04:20:02;;;;;;;0.00;0.00;;;12.10;99.90;;;;;;4979227;28;20449;-71
2022/06/21 04:22:34;;;;;;;0.00;0.00;;;12.20;99.90;;;;;;4978917;28;20465;-73
2022/06/21 04:25:11;;;;;;;0.00;0.00;;;12.30;99.90;;;;;;4979288;28;20466;-76
2022/06/21 04:27:46;;;;;;;0.00;0.00;;;12.30;99.90;;;;;;4984042;28;21032;-74
2022/06/21 04:30:23;;;;;;;0.00;0.00;;;12.40;99.90;;;;;;4987172;28;20438;-72
2022/06/21 04:32:56;;;;;;;0.00;0.00;;;12.50;99.90;;;;;;4985275;28;20837;-73
2022/06/21 04:35:32;;;;;;;0.00;0.00;;;12.50;99.90;;;;;;4989724;28;20462;-73
2022/06/21 04:38:04;;;;;;;0.00;0.00;;;12.50;99.90;;;;;;4989236;28;20468;-73
2022/06/21 04:40:37;;;;;;;0.00;0.00;;;12.50;99.90;;;;;;4983218;28;20455;-72
2022/06/21 04:43:12;;;;;;;0.00;0.00;;;12.50;99.90;;;;;;4997401;28;20454;-72
2022/06/21 04:45:46;;;;;;;0.00;0.00;;;12.60;99.90;;;;;;4996902;28;20483;-73
2022/06/21 04:48:26;;;;;;;0.00;0.00;;;12.60;99.90;;;;;;4998436;28;20959;-73
2022/06/21 04:51:01;;;;;;;0.00;0.00;;;12.70;99.90;;;;;;4989828;28;20953;-73
2022/06/21 04:53:39;;;;;;;0.00;0.00;;;12.70;99.90;;;;;;4991880;28;20773;-73
2022/06/21 04:56:22;;;;;;;0.00;0.00;;;12.80;99.90;;;;;;4982900;28;20469;-75
2022/06/21 04:58:51;;;;;;;0.00;0.00;;;12.80;99.90;;;;;;4982873;28;20466;-73
2022/06/21 05:01:33;;;;;;;0.00;0.00;;;12.80;99.90;;;;;;4984076;28;20558;-72
2022/06/21 05:04:06;;;;;;;0.00;0.00;;;12.90;99.90;;;;;;4993606;28;20449;-72
2022/06/21 05:06:34;;;;;;;0.00;0.00;;;13.00;99.90;;;;;;4992831;28;20479;-73
2022/06/21 05:09:02;;;;;;;0.00;0.00;;;13.00;99.90;;;;;;4992917;28;20461;-72
2022/06/21 05:11:31;;;;;;;0.00;0.00;;;13.00;99.90;;;;;;4996914;28;20446;-72
2022/06/21 05:14:01;;;;;;;0.00;0.00;;;13.10;99.90;;;;;;4996304;28;21068;-72
2022/06/21 05:16:34;;;;;;;0.00;0.00;;;13.20;99.90;;;;;;4997667;28;21148;-72
2022/06/21 05:19:18;;;;;;;0.00;0.00;;;13.30;99.90;;;;;;4998941;28;20446;-76
2022/06/21 05:21:50;;;;;;;0.00;0.00;;;13.20;99.90;;;;;;5002143;28;20457;-70
2022/06/21 05:24:19;;;;;;;0.00;0.00;;;13.30;99.90;;;;;;5006404;28;20446;-71
2022/06/21 05:26:52;;;;;;;0.00;0.00;;;13.40;99.90;;;;;;4994943;28;20510;-72
2022/06/21 05:29:26;;;;;;;0.00;0.00;;;13.50;99.90;;;;;;4999343;28;20658;-72
2022/06/21 05:32:06;;;;;;;0.00;0.00;;;13.80;99.90;;;;;;4986031;28;20458;-75
2022/06/21 05:34:39;;;;;;;0.00;0.00;;;14.10;99.90;;;;;;4984911;28;20442;-73
2022/06/21 05:37:20;;;;;;;0.00;0.00;;;14.30;99.90;;;;;;5000503;28;20501;-72
2022/06/21 05:39:50;;;;;;;0.00;0.00;;;14.40;99.90;;;;;;4991053;28;20818;-74
2022/06/21 05:42:21;;;;;;;0.00;0.00;;;14.40;99.90;;;;;;5001751;28;20512;-69
2022/06/21 05:44:52;;;;;;;0.00;0.00;;;14.40;99.90;;;;;;5002101;28;20808;-69
2022/06/21 05:47:28;;;;;;;0.00;0.00;;;14.40;99.90;;;;;;4985359;28;20492;-73
2022/06/21 05:49:57;;;;;;;0.00;0.00;;;14.30;99.90;;;;;;4999170;28;20557;-72
2022/06/21 05:52:28;;;;;;;0.00;0.00;;;14.40;99.90;;;;;;4993639;28;20823;-71
2022/06/21 05:54:59;;;;;;;0.00;0.00;;;14.40;99.90;;;;;;4993477;28;20470;-71
2022/06/21 05:57:36;;;;;;;0.00;0.00;;;14.40;99.90;;;;;;4995472;28;20793;-73
2022/06/21 06:00:06;;;;;;;0.00;0.00;;;14.40;99.90;;;;;;4996906;28;20914;-74
2022/06/21 06:02:43;;;;;;;0.00;0.00;;;14.40;99.90;;;;;;4998139;28;20466;-71
2022/06/21 06:05:19;;;;;;;0.00;0.00;;;14.40;99.90;;;;;;4984294;28;20449;-74
2022/06/21 06:07:51;;;;;;;0.00;0.00;;;14.50;99.90;;;;;;4982314;28;20482;-73
2022/06/21 06:10:21;;;;;;;0.00;0.00;;;14.60;99.90;;;;;;5001085;28;20462;-73
2022/06/21 06:12:55;;;;;;;0.00;0.00;;;14.60;99.90;;;;;;5001042;28;20528;-71
2022/06/21 06:15:27;;;;;;;0.00;0.00;;;14.70;99.90;;;;;;4984522;28;20451;-73
2022/06/21 06:18:00;;;;;;;0.00;0.00;;;14.80;99.90;;;;;;4987166;28;20808;-74
2022/06/21 06:20:31;;;;;;;0.00;0.00;;;14.80;99.90;;;;;;4984804;28;20847;-74
2022/06/21 06:23:04;;;;;;;0.00;0.00;;;14.80;99.90;;;;;;4994654;28;20556;-76
2022/06/21 06:25:36;;;;;;;0.00;0.00;;;14.90;99.90;;;;;;5000995;28;20560;-75
2022/06/21 06:28:14;;;;;;;0.00;0.00;;;14.90;99.90;;;;;;5001410;28;20481;-73
2022/06/21 06:30:47;;;;;;;0.00;0.00;;;14.90;99.90;;;;;;4983146;28;20466;-73
2022/06/21 06:33:21;;;;;;;0.00;0.00;;;15.00;99.90;;;;;;4989838;28;20846;-74
2022/06/21 06:35:50;;;;;;;0.00;0.00;;;15.10;99.90;;;;;;4995589;28;20739;-73
2022/06/21 06:38:19;;;;;;;0.00;0.00;;;15.20;99.90;;;;;;4982691;28;20446;-75
2022/06/21 06:40:50;;;;;;;0.00;0.00;;;15.20;99.90;;;;;;5000223;28;20569;-76
2022/06/21 06:43:26;;;;;;;0.00;0.00;;;15.20;99.90;;;;;;4989250;28;20465;-75
2022/06/21 06:45:58;;;;;;;0.00;0.00;;;15.20;99.90;;;;;;4995585;28;20484;-75
2022/06/21 06:48:31;;;;;;;0.00;0.00;;;15.30;99.90;;;;;;5001017;28;20508;-75
2022/06/21 06:51:07;;;;;;;0.00;0.00;;;15.30;99.90;;;;;;4998559;28;20446;-74
2022/06/21 06:53:41;;;;;;;0.00;0.00;;;15.40;99.90;;;;;;4980853;28;20474;-75
2022/06/21 06:56:13;;;;;;;0.00;0.00;;;15.40;99.90;;;;;;5000533;28;20470;-71
2022/06/21 06:58:47;;;;;;;0.00;0.00;;;15.50;99.90;;;;;;4985788;28;20446;-76
2022/06/21 07:01:19;;;;;;;0.00;0.00;;;15.40;99.90;;;;;;4993895;28;20617;-74
2022/06/21 07:03:51;;;;;;;0.00;0.00;;;15.50;99.90;;;;;;4998778;28;20793;-75
2022/06/21 07:06:35;;;;;;;0.00;0.00;;;15.60;99.90;;;;;;4998806;28;20621;-73
2022/06/21 07:09:09;;;;;;;0.00;0.00;;;15.70;99.90;;;;;;4999057;28;20969;-74
2022/06/21 07:11:51;;;;;;;0.00;0.00;;;15.80;99.90;;;;;;4999300;28;20442;-73
2022/06/21 07:14:21;;;;;;;0.00;0.00;;;15.80;99.90;;;;;;4999329;28;21100;-75
2022/06/21 07:16:53;;;;;;;0.00;0.00;;;15.90;99.90;;;;;;4999509;28;21043;-73
2022/06/21 07:19:23;;;;;;;0.00;0.00;;;16.00;99.90;;;;;;4999745;28;20964;-75
2022/06/21 07:21:50;;;;;;;0.00;0.00;;;16.10;99.90;;;;;;4999652;28;20442;-75
2022/06/21 07:24:20;;;;;;;0.00;0.00;;;16.30;99.90;;;;;;5000632;28;21106;-72
2022/06/21 07:26:52;;;;;;;0.00;0.00;;;16.30;99.90;;;;;;5000297;28;20549;-75
2022/06/21 07:29:27;;;;;;;0.00;0.00;;;16.50;99.90;;;;;;5000491;28;20558;-74
2022/06/21 07:32:00;;;;;;;0.00;0.00;;;16.50;99.90;;;;;;5000014;28;20473;-74
2022/06/21 07:34:35;;;;;;;0.00;0.00;;;16.60;99.90;;;;;;5000396;28;20536;-75
2022/06/21 07:37:08;;;;;;;0.00;0.00;;;16.60;99.90;;;;;;5000864;28;20458;-74
2022/06/21 07:39:41;;;;;;;0.00;0.00;;;16.50;99.90;;;;;;5001072;28;20437;-75
2022/06/21 07:42:14;;;;;;;0.00;0.00;;;16.60;99.90;;;;;;4999328;28;20994;-77
2022/06/21 07:44:45;;;;;;;0.00;0.00;;;16.60;99.90;;;;;;4998487;28;20466;-74
2022/06/21 07:47:20;;;;;;;0.00;0.00;;;16.70;99.90;;;;;;4999300;28;20465;-75
2022/06/21 07:49:53;;;;;;;0.00;0.00;;;16.70;99.90;;;;;;4997485;28;20445;-74
2022/06/21 07:52:25;;;;;;;0.00;0.00;;;16.80;99.90;;;;;;4998832;28;20431;-74
2022/06/21 07:54:58;;;;;;;0.00;0.00;;;16.80;99.90;;;;;;4998915;28;20446;-75
2022/06/21 07:57:31;;;;;;;0.00;0.00;;;16.90;99.90;;;;;;4997175;28;20536;-77
2022/06/21 08:00:07;;;;;;;0.00;0.00;;;17.00;99.90;;;;;;4999354;28;20462;-75
2022/06/21 08:08:26;;;;;;;0.00;0.00;;;17.30;99.90;;;;;;5000629;28;20479;-76
2022/06/21 08:11:00;;;;;;;0.00;0.00;;;17.30;99.90;;;;;;4998483;28;20447;-74
2022/06/21 08:13:30;;;;;;;0.00;0.00;;;17.40;99.90;;;;;;4997465;28;20447;-75
2022/06/21 08:16:06;;;;;;;0.00;0.00;;;17.40;99.90;;;;;;4999054;28;21001;-75
2022/06/21 08:18:42;;;;;;;0.00;0.00;;;17.50;99.90;;;;;;4997947;28;20474;-75
2022/06/21 08:21:16;;;;;;;0.00;0.00;;;17.50;99.90;;;;;;4996957;28;20502;-77
2022/06/21 08:23:50;;;;;;;0.00;0.00;;;17.60;99.90;;;;;;4998805;28;20436;-76
2022/06/21 08:26:22;;;;;;;0.00;0.00;;;17.60;99.90;;;;;;4998349;28;20796;-76
2022/06/21 08:28:55;;;;;;;0.00;0.00;;;17.70;99.90;;;;;;4996697;28;20506;-76
2022/06/21 08:31:30;;;;;;;0.00;0.00;;;17.80;99.90;;;;;;4995662;28;20436;-76
2022/06/21 08:34:06;;;;;;;0.00;0.00;;;17.80;99.90;;;;;;4999974;28;20448;-76
2022/06/21 08:36:41;;;;;;;0.00;0.00;;;17.90;99.90;;;;;;4999337;28;20755;-76
2022/06/21 08:39:18;;;;;;;0.00;0.00;;;18.00;99.90;;;;;;4996607;28;20726;-76
2022/06/21 08:42:11;;;;;;;0.00;0.00;;;18.10;99.90;;;;;;4998356;28;20795;-75
2022/06/21 08:48:40;;;;;;;0.00;0.00;;;18.20;99.90;;;;;;4970837;28;20487;-76
2022/06/21 08:51:51;;;;;;;0.00;0.00;;;18.30;99.90;;;;;;4965767;28;20478;-77
2022/06/21 08:54:31;;;;;;;0.00;0.00;;;18.30;99.90;;;;;;5001725;28;20464;-77
2022/06/21 08:57:06;;;;;;;0.00;0.00;;;18.40;99.90;;;;;;4999112;28;20490;-77
2022/06/21 08:59:47;;;;;;;0.00;0.00;;;18.50;99.90;;;;;;4999323;28;20445;-77
2022/06/21 09:02:26;;;;;;;0.00;0.00;;;18.50;99.90;;;;;;4998248;28;20855;-77
2022/06/21 09:05:09;;;;;;;0.00;0.00;;;18.60;99.90;;;;;;4997375;28;20457;-77
2022/06/21 09:08:04;;;;;;;0.00;0.00;;;18.70;99.90;;;;;;4997946;28;20555;-77
2022/06/21 09:10:44;;;;;;;0.00;0.00;;;18.60;99.90;;;;;;4997123;28;20464;-77
2022/06/21 09:13:27;;;;;;;0.00;0.00;;;18.70;99.90;;;;;;4996418;28;20512;-77
2022/06/21 09:16:05;;;;;;;0.00;0.00;;;18.90;99.90;;;;;;4997740;28;20553;-77
2022/06/21 09:18:49;;;;;;;0.00;0.00;;;18.90;99.90;;;;;;4994208;28;20559;-77
2022/06/21 09:21:26;;;;;;;0.00;0.00;;;19.00;99.90;;;;;;4994783;28;21028;-77
2022/06/21 09:24:02;;;;;;;0.00;0.00;;;19.10;99.90;;;;;;4996102;28;20539;-77
2022/06/21 09:26:44;;;;;;;0.00;0.00;;;19.30;99.90;;;;;;4997681;28;20453;-75
2022/06/21 09:29:27;;;;;;;0.00;0.00;;;19.50;99.90;;;;;;4992495;28;20561;-77
2022/06/21 09:32:07;;;;;;;0.00;0.00;;;19.60;99.90;;;;;;4996909;28;20591;-78
2022/06/21 09:34:41;;;;;;;0.00;0.00;;;19.60;99.90;;;;;;4996753;28;21127;-77
2022/06/21 09:37:20;;;;;;;0.00;0.00;;;19.60;99.90;;;;;;4995828;28;20723;-76
2022/06/21 09:39:53;;;;;;;0.00;0.00;;;19.60;99.90;;;;;;4996287;28;20984;-77
2022/06/21 09:42:31;;;;;;;0.00;0.00;;;19.70;99.90;;;;;;4999334;28;20444;-76
2022/06/21 09:45:09;;;;;;;0.00;0.00;;;19.80;99.90;;;;;;5002684;28;21218;-75
2022/06/21 09:47:49;;;;;;;0.00;0.00;;;19.90;99.90;;;;;;5001189;28;20450;-75
2022/06/21 09:50:26;;;;;;;0.00;0.00;;;19.90;99.90;;;;;;4996861;28;20482;-76
2022/06/21 09:53:01;;;;;;;0.00;0.00;;;20.00;99.90;;;;;;4997538;28;21119;-76
2022/06/21 09:55:41;;;;;;;0.00;0.00;;;20.10;99.90;;;;;;4996234;28;20665;-74
2022/06/21 09:58:35;;;;;;;0.00;0.00;;;20.20;99.90;;;;;;4995407;28;20547;-77
2022/06/21 10:01:11;;;;;;;0.00;0.00;;;20.40;99.90;;;;;;4993825;28;20454;-75
2022/06/21 10:03:46;;;;;;;0.00;0.00;;;20.40;99.90;;;;;;4999191;28;20442;-76
2022/06/21 10:06:23;;;;;;;0.00;0.00;;;20.40;99.90;;;;;;4999354;28;20550;-76
2022/06/21 10:09:14;;;;;;;0.00;0.00;;;20.40;99.90;;;;;;4994478;28;20492;-75
2022/06/21 10:11:57;;;;;;;0.00;0.00;;;20.30;99.90;;;;;;4982337;28;20464;-75
2022/06/21 10:14:50;;;;;;;0.00;0.00;;;20.10;99.90;;;;;;4998481;28;21062;-74
2022/06/21 10:17:43;;;;;;;0.00;0.00;;;20.10;99.90;;;;;;5000525;28;20470;-76
2022/06/21 10:20:24;;;;;;;0.00;0.00;;;20.20;99.90;;;;;;5000003;28;20748;-74
2022/06/21 10:23:01;;;;;;;0.00;0.00;;;20.20;99.90;;;;;;5001560;28;20635;-74
2022/06/21 10:25:48;;;;;;;0.00;0.00;;;20.30;99.90;;;;;;4997259;28;20496;-75
2022/06/21 10:28:34;;;;;;;0.00;0.00;;;20.30;99.90;;;;;;4992853;28;20446;-76
2022/06/21 10:31:17;;;;;;;0.00;0.00;;;20.40;99.90;;;;;;4981839;28;20625;-74
2022/06/21 10:34:07;;;;;;;0.00;0.00;;;20.30;99.90;;;;;;4983390;28;20447;-74
2022/06/21 10:36:55;;;;;;;0.00;0.00;;;20.50;99.90;;;;;;4998568;28;20465;-77
2022/06/21 10:39:55;;;;;;;0.00;0.00;;;20.70;99.90;;;;;;5001125;28;20430;-77
2022/06/21 10:42:49;;;;;;;0.00;0.00;;;20.80;99.90;;;;;;5000366;28;20443;-75
2022/06/21 10:45:40;;;;;;;0.00;0.00;;;20.80;99.90;;;;;;4988015;28;20462;-76
2022/06/21 10:49:01;;;;;;;0.00;0.00;;;20.90;99.90;;;;;;4995597;28;20462;-76
2022/06/21 10:51:43;;;;;;;0.00;0.00;;;21.00;99.90;;;;;;4998908;28;20951;-76
2022/06/21 10:54:56;;;;;;;0.00;0.00;;;21.00;99.90;;;;;;4999331;28;20980;-76
2022/06/21 10:57:34;;;;;;;0.00;0.00;;;21.10;99.90;;;;;;4905993;29;20573;-78
2022/06/21 11:03:45;;;;;;;0.00;0.00;;;21.20;99.90;;;;;;4990927;28;20921;-78
2022/06/21 11:06:27;;;;;;;0.00;0.00;;;21.20;99.90;;;;;;4992890;28;20497;-78
2022/06/21 11:09:03;;;;;;;0.00;0.00;;;21.40;99.90;;;;;;5001560;28;20438;-78
2022/06/21 11:11:43;;;;;;;0.00;0.00;;;21.60;99.90;;;;;;4990838;28;20452;-78
2022/06/21 11:14:19;;;;;;;0.00;0.00;;;21.60;99.90;;;;;;4981838;28;20519;-78
2022/06/21 11:16:58;;;;;;;0.00;0.00;;;21.60;99.90;;;;;;4981897;28;20562;-78
2022/06/21 11:19:35;;;;;;;0.00;0.00;;;21.60;99.90;;;;;;4980052;28;20441;-78
2022/06/21 11:22:24;;;;;;;0.00;0.00;;;21.60;99.90;;;;;;4981848;28;20469;-77
2022/06/21 11:25:09;;;;;;;0.00;0.00;;;21.60;99.90;;;;;;4980072;28;20478;-78
2022/06/21 11:27:47;;;;;;;0.00;0.00;;;21.80;99.90;;;;;;4980409;28;21098;-78
2022/06/21 11:30:20;;;;;;;0.00;0.00;;;21.90;99.90;;;;;;4980326;28;20480;-78
2022/06/21 11:32:56;;;;;;;0.00;0.00;;;22.10;99.90;;;;;;4980487;28;20989;-78
2022/06/21 11:35:33;;;;;;;0.00;0.00;;;22.10;99.90;;;;;;4986776;28;20459;-78
2022/06/21 11:38:19;;;;;;;0.00;0.00;;;22.10;99.90;;;;;;4999494;28;20722;-78
2022/06/21 11:40:56;;;;;;;0.00;0.00;;;22.10;99.90;;;;;;4997287;28;20468;-77
2022/06/21 11:43:42;;;;;;;0.00;0.00;;;22.10;99.90;;;;;;4994772;28;20461;-78
2022/06/21 11:46:18;;;;;;;0.00;0.00;;;22.20;99.90;;;;;;4998174;28;20786;-78
2022/06/21 11:49:15;;;;;;;0.00;0.00;;;22.20;99.90;;;;;;4996800;28;20444;-78
2022/06/21 11:52:12;;;;;;;0.00;0.00;;;22.20;99.90;;;;;;4996501;28;20645;-78
2022/06/21 11:54:45;;;;;;;0.00;0.00;;;22.10;99.90;;;;;;4999181;28;20457;-78
2022/06/21 11:57:21;;;;;;;0.00;0.00;;;22.00;99.90;;;;;;4996905;28;20491;-78
2022/06/21 11:59:57;;;;;;;0.00;0.00;;;21.70;99.90;;;;;;4996736;28;20509;-78
2022/06/21 12:02:30;;;;;;;0.00;0.00;;;21.70;99.90;;;;;;4990352;28;20976;-78
2022/06/21 12:05:03;;;;;;;0.00;0.00;;;21.70;99.90;;;;;;4991414;28;20955;-80
2022/06/21 12:07:38;;;;;;;0.00;0.00;;;21.70;99.90;;;;;;4982649;28;20866;-77
2022/06/21 12:10:15;;;;;;;0.00;0.00;;;21.80;99.90;;;;;;4988101;28;20909;-73
2022/06/21 12:12:54;;;;;;;0.00;0.00;;;21.90;99.90;;;;;;4978948;28;21109;-74
2022/06/21 12:15:45;;;;;;;0.00;0.00;;;22.10;99.90;;;;;;4989836;28;20978;-76
2022/06/21 12:18:17;;;;;;;0.00;0.00;;;22.00;99.90;;;;;;4988177;28;20638;-77
2022/06/21 12:20:50;;;;;;;0.00;0.00;;;22.00;99.90;;;;;;4994375;28;20449;-76
2022/06/21 12:23:24;;;;;;;0.00;0.00;;;21.90;99.90;;;;;;4985088;28;20457;-77
2022/06/21 12:25:54;;;;;;;0.00;0.00;;;21.90;99.90;;;;;;4989458;28;20480;-76
2022/06/21 12:28:25;;;;;;;0.00;0.00;;;22.10;99.90;;;;;;4993710;28;20546;-74
2022/06/21 12:31:10;;;;;;;0.00;0.00;;;22.30;99.90;;;;;;4984115;28;20486;-76
2022/06/21 12:33:39;;;;;;;0.00;0.00;;;22.30;99.90;;;;;;4993763;28;20525;-76
2022/06/21 12:36:25;;;;;;;0.00;0.00;;;22.40;99.90;;;;;;4984162;28;20473;-75
2022/06/21 12:38:58;;;;;;;0.00;0.00;;;22.50;99.90;;;;;;4992481;28;20548;-77
2022/06/21 12:41:40;;;;;;;0.00;0.00;;;22.50;99.90;;;;;;4986660;28;20448;-75
2022/06/21 12:44:23;;;;;;;0.00;0.00;;;22.60;99.90;;;;;;4981803;28;21016;-74
2022/06/21 12:47:00;;;;;;;0.00;0.00;;;22.70;99.90;;;;;;4983073;28;20568;-74
2022/06/21 12:50:06;;;;;;;0.00;0.00;;;22.90;99.90;;;;;;4991471;28;20468;-77
2022/06/21 12:52:43;;;;;;;0.00;0.00;;;22.90;99.90;;;;;;4982853;28;20440;-76
2022/06/21 12:55:17;;;;;;;0.00;0.00;;;23.00;99.90;;;;;;4980850;28;20463;-77
2022/06/21 12:58:08;;;;;;;0.00;0.00;;;22.90;99.90;;;;;;4989914;28;20556;-76
2022/06/21 13:00:47;;;;;;;0.00;0.00;;;22.80;99.90;;;;;;4990189;28;20456;-77
2022/06/21 13:03:51;;;;;;;0.00;0.00;;;22.70;99.90;;;;;;4980761;28;20546;-76
2022/06/21 13:06:59;;;;;;;0.00;0.00;;;22.70;99.90;;;;;;4966291;28;20475;-77
2022/06/21 13:09:51;;;;;;;0.00;0.00;;;22.50;99.90;;;;;;4980684;28;20460;-76
2022/06/21 13:12:34;;;;;;;0.00;0.00;;;22.30;99.90;;;;;;4979166;28;20941;-74
2022/06/21 13:15:17;;;;;;;0.00;0.00;;;22.30;99.90;;;;;;4982392;28;20453;-77
2022/06/21 13:18:04;;;;;;;0.00;0.00;;;22.20;99.90;;;;;;4990255;28;20805;-77
2022/06/21 13:20:41;;;;;;;0.00;0.00;;;22.20;99.90;;;;;;4988514;28;20458;-77
2022/06/21 13:23:20;;;;;;;0.00;0.00;;;22.20;99.90;;;;;;4998986;28;20438;-79
2022/06/21 13:25:56;;;;;;;0.00;0.00;;;22.20;99.90;;;;;;5001338;28;20943;-79
2022/06/21 13:28:46;;;;;;;0.00;0.00;;;22.20;99.90;;;;;;5001839;28;20449;-80
2022/06/21 13:31:21;;;;;;;0.00;0.00;;;22.30;99.90;;;;;;4992828;28;20625;-79
2022/06/21 13:33:59;;;;;;;0.00;0.00;;;22.30;99.90;;;;;;4997663;28;20506;-79
2022/06/21 13:36:35;;;;;;;0.00;0.00;;;22.50;99.90;;;;;;4983696;28;20496;-79
2022/06/21 13:39:25;;;;;;;0.00;0.00;;;22.50;99.90;;;;;;4993094;28;20444;-80
2022/06/21 13:44:53;;;;;;;0.00;0.00;;;22.50;99.90;;;;;;5016739;28;20435;-78
2022/06/21 13:47:29;;;;;;;0.00;0.00;;;22.60;99.90;;;;;;5006156;28;20483;-76
2022/06/21 13:50:04;;;;;;;0.00;0.00;;;22.90;99.90;;;;;;5025823;28;20446;-77
2022/06/21 13:52:41;;;;;;;0.00;0.00;;;23.00;99.90;;;;;;5007227;28;20444;-78
2022/06/21 13:55:34;;;;;;;0.00;0.00;;;23.10;99.90;;;;;;5001442;28;20452;-75